sensor_id;sensor_type;location;lat;lon;timestamp;P1;durP1;ratioP1;P2;durP2;ratioP2
45402;SDS011;47427;51.976;5.326;2023-02-13T00:01:19;43.88;;;28.30;;
45402;SDS011;47427;51.976;5.326;2023-02-13T00:04:44;38.40;;;25.90;;
45402;SDS011;47427;51.976;5.326;2023-02-13T00:08:17;35.88;;;26.15;;
45402;SDS011;47427;51.976;5.326;2023-02-13T00:11:48;40.92;;;26.75;;
45402;SDS011;47427;51.976;5.326;2023-02-13T00:15:12;39.70;;;26.33;;
45402;SDS011;47427;51.976;5.326;2023-02-13T00:18:43;41.60;;;26.77;;
45402;SDS011;47427;51.976;5.326;2023-02-13T00:22:26;41.03;;;27.58;;
45402;SDS011;47427;51.976;5.326;2023-02-13T00:25:59;42.60;;;27.58;;
45402;SDS011;47427;51.976;5.326;2023-02-13T00:29:37;48.13;;;30.00;;
45402;SDS011;47427;51.976;5.326;2023-02-13T00:32:59;38.88;;;27.75;;
45402;SDS011;47427;51.976;5.326;2023-02-13T00:36:21;40.47;;;27.23;;
45402;SDS011;47427;51.976;5.326;2023-02-13T00:39:46;43.38;;;27.85;;
45402;SDS011;47427;51.976;5.326;2023-02-13T00:43:11;46.80;;;29.57;;
45402;SDS011;47427;51.976;5.326;2023-02-13T00:46:40;40.65;;;27.67;;
45402;SDS011;47427;51.976;5.326;2023-02-13T00:50:30;37.10;;;25.17;;
45402;SDS011;47427;51.976;5.326;2023-02-13T00:53:59;41.83;;;26.88;;
45402;SDS011;47427;51.976;5.326;2023-02-13T00:57:21;42.53;;;28.92;;
45402;SDS011;47427;51.976;5.326;2023-02-13T01:00:51;43.67;;;28.02;;
45402;SDS011;47427;51.976;5.326;2023-02-13T01:04:21;42.00;;;27.25;;
45402;SDS011;47427;51.976;5.326;2023-02-13T01:07:57;37.92;;;26.55;;
45402;SDS011;47427;51.976;5.326;2023-02-13T01:11:36;41.78;;;28.13;;
45402;SDS011;47427;51.976;5.326;2023-02-13T01:15:17;38.42;;;25.83;;
45402;SDS011;47427;51.976;5.326;2023-02-13T01:18:46;40.63;;;28.45;;
45402;SDS011;47427;51.976;5.326;2023-02-13T01:22:24;41.78;;;27.45;;
45402;SDS011;47427;51.976;5.326;2023-02-13T01:25:48;39.95;;;25.40;;
45402;SDS011;47427;51.976;5.326;2023-02-13T01:29:13;40.95;;;27.30;;
45402;SDS011;47427;51.976;5.326;2023-02-13T01:32:48;44.83;;;28.20;;
45402;SDS011;47427;51.976;5.326;2023-02-13T01:36:27;42.55;;;28.35;;
45402;SDS011;47427;51.976;5.326;2023-02-13T01:43:55;41.30;;;26.08;;
45402;SDS011;47427;51.976;5.326;2023-02-13T01:47:30;40.45;;;28.25;;
45402;SDS011;47427;51.976;5.326;2023-02-13T01:51:28;43.00;;;27.77;;
45402;SDS011;47427;51.976;5.326;2023-02-13T01:54:58;43.72;;;27.23;;
45402;SDS011;47427;51.976;5.326;2023-02-13T01:58:23;43.20;;;26.90;;
45402;SDS011;47427;51.976;5.326;2023-02-13T02:02:18;38.88;;;27.05;;
45402;SDS011;47427;51.976;5.326;2023-02-13T02:05:54;42.38;;;27.63;;
45402;SDS011;47427;51.976;5.326;2023-02-13T02:09:29;37.80;;;26.52;;
45402;SDS011;47427;51.976;5.326;2023-02-13T02:13:13;44.92;;;27.30;;
45402;SDS011;47427;51.976;5.326;2023-02-13T02:17:02;38.75;;;26.23;;
45402;SDS011;47427;51.976;5.326;2023-02-13T02:28:48;42.75;;;26.38;;
45402;SDS011;47427;51.976;5.326;2023-02-13T02:49:04;42.03;;;27.40;;
45402;SDS011;47427;51.976;5.326;2023-02-13T02:53:13;42.55;;;26.00;;
45402;SDS011;47427;51.976;5.326;2023-02-13T02:57:14;38.83;;;25.33;;
45402;SDS011;47427;51.976;5.326;2023-02-13T03:01:21;45.35;;;26.67;;
45402;SDS011;47427;51.976;5.326;2023-02-13T03:05:14;37.72;;;25.27;;
45402;SDS011;47427;51.976;5.326;2023-02-13T03:09:11;40.55;;;26.20;;
45402;SDS011;47427;51.976;5.326;2023-02-13T03:13:12;41.28;;;27.70;;
45402;SDS011;47427;51.976;5.326;2023-02-13T03:17:01;43.38;;;27.45;;
45402;SDS011;47427;51.976;5.326;2023-02-13T03:20:45;43.17;;;27.20;;
45402;SDS011;47427;51.976;5.326;2023-02-13T03:29:04;39.22;;;26.88;;
45402;SDS011;47427;51.976;5.326;2023-02-13T03:37:43;39.08;;;27.00;;
45402;SDS011;47427;51.976;5.326;2023-02-13T03:41:22;41.78;;;26.85;;
45402;SDS011;47427;51.976;5.326;2023-02-13T03:44:52;40.42;;;26.73;;
45402;SDS011;47427;51.976;5.326;2023-02-13T03:48:41;40.33;;;26.65;;
45402;SDS011;47427;51.976;5.326;2023-02-13T03:52:34;43.00;;;28.33;;
45402;SDS011;47427;51.976;5.326;2023-02-13T03:56:05;47.17;;;29.02;;
45402;SDS011;47427;51.976;5.326;2023-02-13T03:59:49;42.70;;;27.83;;
45402;SDS011;47427;51.976;5.326;2023-02-13T04:03:24;45.13;;;29.02;;
45402;SDS011;47427;51.976;5.326;2023-02-13T04:07:46;45.38;;;28.33;;
45402;SDS011;47427;51.976;5.326;2023-02-13T04:11:15;39.85;;;27.20;;
45402;SDS011;47427;51.976;5.326;2023-02-13T04:14:49;41.40;;;27.70;;
45402;SDS011;47427;51.976;5.326;2023-02-13T04:18:26;38.72;;;26.27;;
45402;SDS011;47427;51.976;5.326;2023-02-13T04:21:55;42.72;;;27.55;;
45402;SDS011;47427;51.976;5.326;2023-02-13T04:25:49;42.00;;;26.47;;
45402;SDS011;47427;51.976;5.326;2023-02-13T04:29:19;41.67;;;26.55;;
45402;SDS011;47427;51.976;5.326;2023-02-13T04:32:51;44.45;;;28.52;;
45402;SDS011;47427;51.976;5.326;2023-02-13T04:36:13;44.72;;;26.90;;
45402;SDS011;47427;51.976;5.326;2023-02-13T04:39:37;46.25;;;28.83;;
45402;SDS011;47427;51.976;5.326;2023-02-13T04:43:13;41.22;;;27.83;;
45402;SDS011;47427;51.976;5.326;2023-02-13T04:46:55;42.25;;;27.83;;
45402;SDS011;47427;51.976;5.326;2023-02-13T04:50:18;48.50;;;30.42;;
45402;SDS011;47427;51.976;5.326;2023-02-13T04:53:44;40.22;;;26.95;;
45402;SDS011;47427;51.976;5.326;2023-02-13T04:57:09;46.90;;;28.38;;
45402;SDS011;47427;51.976;5.326;2023-02-13T05:00:47;45.80;;;28.25;;
45402;SDS011;47427;51.976;5.326;2023-02-13T05:04:16;45.15;;;28.80;;
45402;SDS011;47427;51.976;5.326;2023-02-13T05:07:57;42.72;;;27.83;;
45402;SDS011;47427;51.976;5.326;2023-02-13T05:11:23;48.95;;;29.83;;
45402;SDS011;47427;51.976;5.326;2023-02-13T05:19:09;46.33;;;30.35;;
45402;SDS011;47427;51.976;5.326;2023-02-13T05:23:04;43.45;;;28.65;;
45402;SDS011;47427;51.976;5.326;2023-02-13T05:26:51;48.05;;;28.40;;
45402;SDS011;47427;51.976;5.326;2023-02-13T05:30:13;54.10;;;32.03;;
45402;SDS011;47427;51.976;5.326;2023-02-13T05:33:37;50.35;;;31.02;;
45402;SDS011;47427;51.976;5.326;2023-02-13T05:37:08;48.67;;;31.17;;
45402;SDS011;47427;51.976;5.326;2023-02-13T05:40:52;53.75;;;30.88;;
45402;SDS011;47427;51.976;5.326;2023-02-13T05:44:28;52.72;;;31.38;;
45402;SDS011;47427;51.976;5.326;2023-02-13T05:47:59;56.90;;;33.97;;
45402;SDS011;47427;51.976;5.326;2023-02-13T05:51:33;51.75;;;31.85;;
45402;SDS011;47427;51.976;5.326;2023-02-13T05:55:06;50.55;;;31.38;;
45402;SDS011;47427;51.976;5.326;2023-02-13T05:58:27;54.67;;;32.97;;
45402;SDS011;47427;51.976;5.326;2023-02-13T06:01:55;51.67;;;32.42;;
45402;SDS011;47427;51.976;5.326;2023-02-13T06:05:18;50.00;;;30.33;;
45402;SDS011;47427;51.976;5.326;2023-02-13T06:08:57;58.15;;;33.08;;
45402;SDS011;47427;51.976;5.326;2023-02-13T06:12:24;52.30;;;33.72;;
45402;SDS011;47427;51.976;5.326;2023-02-13T06:16:14;53.75;;;32.70;;
45402;SDS011;47427;51.976;5.326;2023-02-13T06:23:31;58.53;;;33.00;;
45402;SDS011;47427;51.976;5.326;2023-02-13T06:27:17;59.08;;;36.15;;
45402;SDS011;47427;51.976;5.326;2023-02-13T06:30:43;53.55;;;34.75;;
45402;SDS011;47427;51.976;5.326;2023-02-13T06:34:10;63.35;;;36.85;;
45402;SDS011;47427;51.976;5.326;2023-02-13T06:37:34;61.53;;;35.65;;
45402;SDS011;47427;51.976;5.326;2023-02-13T06:41:26;58.90;;;34.15;;
45402;SDS011;47427;51.976;5.326;2023-02-13T06:45:00;67.38;;;38.95;;
45402;SDS011;47427;51.976;5.326;2023-02-13T06:48:34;57.83;;;34.40;;
45402;SDS011;47427;51.976;5.326;2023-02-13T06:51:56;60.20;;;36.22;;
45402;SDS011;47427;51.976;5.326;2023-02-13T06:55:25;58.75;;;35.85;;
45402;SDS011;47427;51.976;5.326;2023-02-13T06:58:49;68.22;;;36.28;;
45402;SDS011;47427;51.976;5.326;2023-02-13T07:02:16;69.50;;;39.00;;
45402;SDS011;47427;51.976;5.326;2023-02-13T07:05:51;67.28;;;38.17;;
45402;SDS011;47427;51.976;5.326;2023-02-13T07:09:15;66.95;;;37.45;;
45402;SDS011;47427;51.976;5.326;2023-02-13T07:12:40;76.97;;;39.75;;
45402;SDS011;47427;51.976;5.326;2023-02-13T07:16:05;65.13;;;39.38;;
45402;SDS011;47427;51.976;5.326;2023-02-13T07:19:27;64.18;;;37.08;;
45402;SDS011;47427;51.976;5.326;2023-02-13T07:22:51;72.07;;;39.35;;
45402;SDS011;47427;51.976;5.326;2023-02-13T07:26:19;72.53;;;38.58;;
45402;SDS011;47427;51.976;5.326;2023-02-13T07:33:10;78.68;;;43.28;;
45402;SDS011;47427;51.976;5.326;2023-02-13T07:36:34;100.63;;;65.57;;
45402;SDS011;47427;51.976;5.326;2023-02-13T07:40:03;85.28;;;49.45;;
45402;SDS011;47427;51.976;5.326;2023-02-13T07:43:38;71.63;;;41.17;;
45402;SDS011;47427;51.976;5.326;2023-02-13T07:47:01;70.05;;;43.78;;
45402;SDS011;47427;51.976;5.326;2023-02-13T07:50:42;58.70;;;36.47;;
45402;SDS011;47427;51.976;5.326;2023-02-13T07:54:09;54.88;;;36.35;;
45402;SDS011;47427;51.976;5.326;2023-02-13T07:57:30;51.55;;;33.22;;
45402;SDS011;47427;51.976;5.326;2023-02-13T08:00:55;56.63;;;34.75;;
45402;SDS011;47427;51.976;5.326;2023-02-13T08:04:18;49.40;;;31.27;;
45402;SDS011;47427;51.976;5.326;2023-02-13T08:07:39;53.47;;;33.80;;
45402;SDS011;47427;51.976;5.326;2023-02-13T08:11:07;46.35;;;33.20;;
45402;SDS011;47427;51.976;5.326;2023-02-13T08:15:57;44.50;;;33.85;;
45402;SDS011;47427;51.976;5.326;2023-02-13T08:19:36;45.10;;;33.38;;
45402;SDS011;47427;51.976;5.326;2023-02-13T08:23:04;45.58;;;34.88;;
45402;SDS011;47427;51.976;5.326;2023-02-13T08:26:38;43.38;;;33.83;;
45402;SDS011;47427;51.976;5.326;2023-02-13T08:30:02;42.08;;;31.30;;
45402;SDS011;47427;51.976;5.326;2023-02-13T08:33:35;41.90;;;28.60;;
45402;SDS011;47427;51.976;5.326;2023-02-13T08:37:27;38.85;;;29.70;;
45402;SDS011;47427;51.976;5.326;2023-02-13T08:41:04;42.53;;;30.90;;
45402;SDS011;47427;51.976;5.326;2023-02-13T08:44:32;42.95;;;32.47;;
45402;SDS011;47427;51.976;5.326;2023-02-13T08:48:10;35.60;;;29.35;;
45402;SDS011;47427;51.976;5.326;2023-02-13T08:51:31;37.22;;;31.70;;
45402;SDS011;47427;51.976;5.326;2023-02-13T08:54:58;35.63;;;31.23;;
45402;SDS011;47427;51.976;5.326;2023-02-13T08:58:19;35.65;;;30.52;;
45402;SDS011;47427;51.976;5.326;2023-02-13T09:02:03;43.33;;;31.10;;
45402;SDS011;47427;51.976;5.326;2023-02-13T09:05:26;35.72;;;28.95;;
45402;SDS011;47427;51.976;5.326;2023-02-13T09:09:03;35.80;;;29.50;;
45402;SDS011;47427;51.976;5.326;2023-02-13T09:12:51;35.97;;;30.40;;
45402;SDS011;47427;51.976;5.326;2023-02-13T09:16:21;38.63;;;31.37;;
45402;SDS011;47427;51.976;5.326;2023-02-13T09:19:55;36.58;;;29.33;;
45402;SDS011;47427;51.976;5.326;2023-02-13T09:23:20;35.88;;;29.02;;
45402;SDS011;47427;51.976;5.326;2023-02-13T09:26:44;34.15;;;27.63;;
45402;SDS011;47427;51.976;5.326;2023-02-13T09:30:08;33.25;;;27.80;;
45402;SDS011;47427;51.976;5.326;2023-02-13T09:34:03;42.15;;;34.17;;
45402;SDS011;47427;51.976;5.326;2023-02-13T09:37:29;37.60;;;30.00;;
45402;SDS011;47427;51.976;5.326;2023-02-13T09:40:55;36.15;;;28.38;;
45402;SDS011;47427;51.976;5.326;2023-02-13T09:44:34;31.77;;;26.67;;
45402;SDS011;47427;51.976;5.326;2023-02-13T09:48:10;38.38;;;28.55;;
45402;SDS011;47427;51.976;5.326;2023-02-13T09:51:57;31.05;;;27.85;;
45402;SDS011;47427;51.976;5.326;2023-02-13T09:59:39;29.50;;;22.92;;
45402;SDS011;47427;51.976;5.326;2023-02-13T10:07:00;29.75;;;26.63;;
45402;SDS011;47427;51.976;5.326;2023-02-13T10:10:51;31.40;;;27.90;;
45402;SDS011;47427;51.976;5.326;2023-02-13T10:23:39;32.58;;;28.15;;
45402;SDS011;47427;51.976;5.326;2023-02-13T10:27:11;29.13;;;26.20;;
45402;SDS011;47427;51.976;5.326;2023-02-13T10:31:25;29.20;;;26.23;;
45402;SDS011;47427;51.976;5.326;2023-02-13T10:34:50;29.38;;;26.42;;
45402;SDS011;47427;51.976;5.326;2023-02-13T10:38:16;35.25;;;31.40;;
45402;SDS011;47427;51.976;5.326;2023-02-13T10:49:22;27.15;;;24.45;;
45402;SDS011;47427;51.976;5.326;2023-02-13T11:04:54;26.95;;;24.25;;
45402;SDS011;47427;51.976;5.326;2023-02-13T11:08:44;27.92;;;25.05;;
45402;SDS011;47427;51.976;5.326;2023-02-13T11:16:00;32.42;;;27.73;;
45402;SDS011;47427;51.976;5.326;2023-02-13T11:19:39;28.52;;;25.70;;
45402;SDS011;47427;51.976;5.326;2023-02-13T11:23:35;28.67;;;25.75;;
45402;SDS011;47427;51.976;5.326;2023-02-13T11:27:21;26.98;;;24.27;;
45402;SDS011;47427;51.976;5.326;2023-02-13T11:30:50;28.58;;;25.48;;
45402;SDS011;47427;51.976;5.326;2023-02-13T11:34:17;30.45;;;25.98;;
45402;SDS011;47427;51.976;5.326;2023-02-13T11:38:12;33.28;;;27.20;;
45402;SDS011;47427;51.976;5.326;2023-02-13T11:41:46;32.33;;;24.13;;
45402;SDS011;47427;51.976;5.326;2023-02-13T11:45:31;29.30;;;25.90;;
45402;SDS011;47427;51.976;5.326;2023-02-13T11:49:14;29.30;;;26.20;;
45402;SDS011;47427;51.976;5.326;2023-02-13T11:56:53;28.63;;;25.52;;
45402;SDS011;47427;51.976;5.326;2023-02-13T12:00:51;29.85;;;25.13;;
45402;SDS011;47427;51.976;5.326;2023-02-13T12:04:30;27.52;;;24.67;;
45402;SDS011;47427;51.976;5.326;2023-02-13T12:08:01;28.85;;;26.00;;
45402;SDS011;47427;51.976;5.326;2023-02-13T12:11:47;30.33;;;27.13;;
45402;SDS011;47427;51.976;5.326;2023-02-13T12:15:16;25.77;;;23.17;;
45402;SDS011;47427;51.976;5.326;2023-02-13T12:19:06;25.95;;;23.27;;
45402;SDS011;47427;51.976;5.326;2023-02-13T12:26:54;26.83;;;24.02;;
45402;SDS011;47427;51.976;5.326;2023-02-13T12:30:44;30.10;;;26.88;;
45402;SDS011;47427;51.976;5.326;2023-02-13T12:38:22;29.02;;;26.00;;
45402;SDS011;47427;51.976;5.326;2023-02-13T12:54:27;28.60;;;25.70;;
45402;SDS011;47427;51.976;5.326;2023-02-13T12:58:43;32.55;;;29.33;;
45402;SDS011;47427;51.976;5.326;2023-02-13T13:02:37;28.83;;;23.63;;
45402;SDS011;47427;51.976;5.326;2023-02-13T13:11:32;24.83;;;21.83;;
45402;SDS011;47427;51.976;5.326;2023-02-13T13:15:52;25.65;;;23.05;;
45402;SDS011;47427;51.976;5.326;2023-02-13T13:20:37;42.35;;;35.00;;
45402;SDS011;47427;51.976;5.326;2023-02-13T13:28:44;30.52;;;27.33;;
45402;SDS011;47427;51.976;5.326;2023-02-13T13:32:33;35.63;;;31.63;;
45402;SDS011;47427;51.976;5.326;2023-02-13T13:48:33;25.88;;;23.40;;
45402;SDS011;47427;51.976;5.326;2023-02-13T14:04:00;26.27;;;23.55;;
45402;SDS011;47427;51.976;5.326;2023-02-13T14:08:03;25.77;;;23.20;;
45402;SDS011;47427;51.976;5.326;2023-02-13T14:12:34;27.50;;;24.77;;
45402;SDS011;47427;51.976;5.326;2023-02-13T14:15:52;25.75;;;22.23;;
45402;SDS011;47427;51.976;5.326;2023-02-13T14:19:34;26.55;;;23.40;;
45402;SDS011;47427;51.976;5.326;2023-02-13T14:27:18;26.65;;;23.95;;
45402;SDS011;47427;51.976;5.326;2023-02-13T14:31:03;28.45;;;25.38;;
45402;SDS011;47427;51.976;5.326;2023-02-13T14:34:36;26.05;;;23.45;;
45402;SDS011;47427;51.976;5.326;2023-02-13T14:38:00;26.45;;;23.58;;
45402;SDS011;47427;51.976;5.326;2023-02-13T14:45:26;27.80;;;23.40;;
45402;SDS011;47427;51.976;5.326;2023-02-13T14:49:10;26.00;;;22.93;;
45402;SDS011;47427;51.976;5.326;2023-02-13T14:52:45;26.17;;;23.45;;
45402;SDS011;47427;51.976;5.326;2023-02-13T14:56:12;26.50;;;23.70;;
45402;SDS011;47427;51.976;5.326;2023-02-13T14:59:52;25.48;;;22.55;;
45402;SDS011;47427;51.976;5.326;2023-02-13T15:07:06;24.55;;;22.00;;
45402;SDS011;47427;51.976;5.326;2023-02-13T15:10:56;25.50;;;22.55;;
45402;SDS011;47427;51.976;5.326;2023-02-13T15:14:45;23.98;;;21.52;;
45402;SDS011;47427;51.976;5.326;2023-02-13T15:18:09;25.15;;;22.08;;
45402;SDS011;47427;51.976;5.326;2023-02-13T15:21:51;23.23;;;20.75;;
45402;SDS011;47427;51.976;5.326;2023-02-13T15:25:37;24.45;;;21.83;;
45402;SDS011;47427;51.976;5.326;2023-02-13T15:29:14;25.60;;;23.08;;
45402;SDS011;47427;51.976;5.326;2023-02-13T15:32:43;23.58;;;20.95;;
45402;SDS011;47427;51.976;5.326;2023-02-13T15:36:25;25.80;;;21.95;;
45402;SDS011;47427;51.976;5.326;2023-02-13T15:40:13;24.73;;;22.17;;
45402;SDS011;47427;51.976;5.326;2023-02-13T15:43:48;28.08;;;25.00;;
45402;SDS011;47427;51.976;5.326;2023-02-13T15:47:28;28.30;;;25.30;;
45402;SDS011;47427;51.976;5.326;2023-02-13T15:50:53;24.67;;;22.15;;
45402;SDS011;47427;51.976;5.326;2023-02-13T15:54:25;27.02;;;23.65;;
45402;SDS011;47427;51.976;5.326;2023-02-13T15:58:10;24.48;;;21.88;;
45402;SDS011;47427;51.976;5.326;2023-02-13T16:01:41;24.98;;;22.23;;
45402;SDS011;47427;51.976;5.326;2023-02-13T16:05:10;25.67;;;22.55;;
45402;SDS011;47427;51.976;5.326;2023-02-13T16:08:57;28.55;;;22.23;;
45402;SDS011;47427;51.976;5.326;2023-02-13T16:12:33;26.77;;;23.88;;
45402;SDS011;47427;51.976;5.326;2023-02-13T16:16:07;25.95;;;23.20;;
45402;SDS011;47427;51.976;5.326;2023-02-13T16:23:50;27.67;;;24.65;;
45402;SDS011;47427;51.976;5.326;2023-02-13T16:27:55;24.98;;;22.17;;
45402;SDS011;47427;51.976;5.326;2023-02-13T16:31:33;32.10;;;23.65;;
45402;SDS011;47427;51.976;5.326;2023-02-13T16:35:16;35.83;;;24.67;;
45402;SDS011;47427;51.976;5.326;2023-02-13T16:38:57;29.20;;;23.00;;
45402;SDS011;47427;51.976;5.326;2023-02-13T16:42:36;28.23;;;25.10;;
45402;SDS011;47427;51.976;5.326;2023-02-13T16:50:01;33.38;;;25.83;;
45402;SDS011;47427;51.976;5.326;2023-02-13T16:53:43;34.42;;;27.60;;
45402;SDS011;47427;51.976;5.326;2023-02-13T16:57:34;30.67;;;25.30;;
45402;SDS011;47427;51.976;5.326;2023-02-13T17:01:12;35.85;;;27.38;;
45402;SDS011;47427;51.976;5.326;2023-02-13T17:08:33;33.85;;;26.42;;
45402;SDS011;47427;51.976;5.326;2023-02-13T17:11:57;32.05;;;25.58;;
45402;SDS011;47427;51.976;5.326;2023-02-13T17:15:24;32.15;;;24.83;;
45402;SDS011;47427;51.976;5.326;2023-02-13T17:18:50;30.15;;;22.88;;
45402;SDS011;47427;51.976;5.326;2023-02-13T17:22:20;29.25;;;21.77;;
45402;SDS011;47427;51.976;5.326;2023-02-13T17:25:56;34.05;;;24.52;;
45402;SDS011;47427;51.976;5.326;2023-02-13T17:29:27;32.40;;;24.08;;
45402;SDS011;47427;51.976;5.326;2023-02-13T17:32:49;37.20;;;25.90;;
45402;SDS011;47427;51.976;5.326;2023-02-13T17:36:39;36.05;;;26.30;;
45402;SDS011;47427;51.976;5.326;2023-02-13T17:40:08;40.28;;;25.55;;
45402;SDS011;47427;51.976;5.326;2023-02-13T17:43:41;30.70;;;23.88;;
45402;SDS011;47427;51.976;5.326;2023-02-13T17:47:03;34.28;;;26.92;;
45402;SDS011;47427;51.976;5.326;2023-02-13T17:50:26;36.40;;;25.95;;
45402;SDS011;47427;51.976;5.326;2023-02-13T17:54:10;39.08;;;27.50;;
45402;SDS011;47427;51.976;5.326;2023-02-13T17:57:33;34.67;;;26.65;;
45402;SDS011;47427;51.976;5.326;2023-02-13T18:00:56;40.30;;;26.98;;
45402;SDS011;47427;51.976;5.326;2023-02-13T18:04:20;33.50;;;24.95;;
45402;SDS011;47427;51.976;5.326;2023-02-13T18:07:48;33.97;;;25.85;;
45402;SDS011;47427;51.976;5.326;2023-02-13T18:11:11;37.30;;;27.10;;
45402;SDS011;47427;51.976;5.326;2023-02-13T18:14:33;38.53;;;28.48;;
45402;SDS011;47427;51.976;5.326;2023-02-13T18:18:14;33.08;;;25.20;;
45402;SDS011;47427;51.976;5.326;2023-02-13T18:21:37;39.75;;;26.95;;
45402;SDS011;47427;51.976;5.326;2023-02-13T18:25:02;36.85;;;26.98;;
45402;SDS011;47427;51.976;5.326;2023-02-13T18:28:28;33.33;;;25.90;;
45402;SDS011;47427;51.976;5.326;2023-02-13T18:31:50;35.28;;;27.58;;
45402;SDS011;47427;51.976;5.326;2023-02-13T18:35:13;43.28;;;28.08;;
45402;SDS011;47427;51.976;5.326;2023-02-13T18:38:37;44.15;;;28.38;;
45402;SDS011;47427;51.976;5.326;2023-02-13T18:42:04;34.25;;;26.67;;
45402;SDS011;47427;51.976;5.326;2023-02-13T18:45:26;39.90;;;27.75;;
45402;SDS011;47427;51.976;5.326;2023-02-13T18:48:53;38.53;;;27.98;;
45402;SDS011;47427;51.976;5.326;2023-02-13T18:52:15;39.08;;;27.70;;
45402;SDS011;47427;51.976;5.326;2023-02-13T18:55:46;42.05;;;29.90;;
45402;SDS011;47427;51.976;5.326;2023-02-13T18:59:09;49.80;;;30.25;;
45402;SDS011;47427;51.976;5.326;2023-02-13T19:02:32;39.33;;;28.77;;
45402;SDS011;47427;51.976;5.326;2023-02-13T19:05:55;43.17;;;28.60;;
45402;SDS011;47427;51.976;5.326;2023-02-13T19:09:19;43.08;;;29.33;;
45402;SDS011;47427;51.976;5.326;2023-02-13T19:12:49;47.78;;;29.95;;
45402;SDS011;47427;51.976;5.326;2023-02-13T19:16:13;43.13;;;30.08;;
45402;SDS011;47427;51.976;5.326;2023-02-13T19:19:41;41.20;;;28.92;;
45402;SDS011;47427;51.976;5.326;2023-02-13T19:23:09;44.78;;;29.08;;
45402;SDS011;47427;51.976;5.326;2023-02-13T19:26:32;39.65;;;27.98;;
45402;SDS011;47427;51.976;5.326;2023-02-13T19:29:54;39.38;;;28.65;;
45402;SDS011;47427;51.976;5.326;2023-02-13T19:33:15;39.33;;;27.30;;
45402;SDS011;47427;51.976;5.326;2023-02-13T19:36:38;38.03;;;28.92;;
45402;SDS011;47427;51.976;5.326;2023-02-13T19:40:04;37.38;;;26.15;;
45402;SDS011;47427;51.976;5.326;2023-02-13T19:43:30;45.25;;;30.70;;
45402;SDS011;47427;51.976;5.326;2023-02-13T19:46:54;37.75;;;27.42;;
45402;SDS011;47427;51.976;5.326;2023-02-13T19:50:17;41.25;;;28.63;;
45402;SDS011;47427;51.976;5.326;2023-02-13T19:53:43;39.03;;;27.73;;
45402;SDS011;47427;51.976;5.326;2023-02-13T19:57:05;43.65;;;28.08;;
45402;SDS011;47427;51.976;5.326;2023-02-13T20:00:28;37.03;;;26.02;;
45402;SDS011;47427;51.976;5.326;2023-02-13T20:03:52;34.80;;;26.25;;
45402;SDS011;47427;51.976;5.326;2023-02-13T20:07:18;32.95;;;23.48;;
45402;SDS011;47427;51.976;5.326;2023-02-13T20:10:44;34.45;;;25.60;;
45402;SDS011;47427;51.976;5.326;2023-02-13T20:14:09;33.25;;;25.35;;
45402;SDS011;47427;51.976;5.326;2023-02-13T20:17:35;39.05;;;24.50;;
45402;SDS011;47427;51.976;5.326;2023-02-13T20:21:10;34.10;;;24.75;;
45402;SDS011;47427;51.976;5.326;2023-02-13T20:24:36;30.90;;;23.33;;
45402;SDS011;47427;51.976;5.326;2023-02-13T20:27:58;37.63;;;23.98;;
45402;SDS011;47427;51.976;5.326;2023-02-13T20:31:20;35.80;;;23.40;;
45402;SDS011;47427;51.976;5.326;2023-02-13T20:34:46;32.03;;;23.05;;
45402;SDS011;47427;51.976;5.326;2023-02-13T20:38:15;34.22;;;23.38;;
45402;SDS011;47427;51.976;5.326;2023-02-13T20:41:36;33.00;;;22.67;;
45402;SDS011;47427;51.976;5.326;2023-02-13T20:44:59;34.33;;;24.45;;
45402;SDS011;47427;51.976;5.326;2023-02-13T20:48:21;31.80;;;22.88;;
45402;SDS011;47427;51.976;5.326;2023-02-13T20:51:47;34.28;;;23.80;;
45402;SDS011;47427;51.976;5.326;2023-02-13T20:55:12;35.83;;;23.77;;
45402;SDS011;47427;51.976;5.326;2023-02-13T20:58:35;35.80;;;23.92;;
45402;SDS011;47427;51.976;5.326;2023-02-13T21:02:00;35.28;;;23.73;;
45402;SDS011;47427;51.976;5.326;2023-02-13T21:05:25;35.80;;;25.00;;
45402;SDS011;47427;51.976;5.326;2023-02-13T21:08:48;40.10;;;24.95;;
45402;SDS011;47427;51.976;5.326;2023-02-13T21:12:31;40.53;;;29.48;;
45402;SDS011;47427;51.976;5.326;2023-02-13T21:19:39;41.08;;;27.73;;
45402;SDS011;47427;51.976;5.326;2023-02-13T21:23:01;33.15;;;24.88;;
45402;SDS011;47427;51.976;5.326;2023-02-13T21:26:27;31.00;;;24.65;;
45402;SDS011;47427;51.976;5.326;2023-02-13T21:29:53;38.30;;;26.02;;
45402;SDS011;47427;51.976;5.326;2023-02-13T21:33:15;33.03;;;23.60;;
45402;SDS011;47427;51.976;5.326;2023-02-13T21:36:39;39.88;;;25.65;;
45402;SDS011;47427;51.976;5.326;2023-02-13T21:40:02;30.85;;;22.45;;
45402;SDS011;47427;51.976;5.326;2023-02-13T21:43:25;36.85;;;25.95;;
45402;SDS011;47427;51.976;5.326;2023-02-13T21:46:53;32.60;;;23.88;;
45402;SDS011;47427;51.976;5.326;2023-02-13T21:50:23;37.90;;;24.25;;
45402;SDS011;47427;51.976;5.326;2023-02-13T21:53:46;33.35;;;23.63;;
45402;SDS011;47427;51.976;5.326;2023-02-13T21:57:13;34.90;;;24.17;;
45402;SDS011;47427;51.976;5.326;2023-02-13T22:00:36;36.05;;;23.40;;
45402;SDS011;47427;51.976;5.326;2023-02-13T22:04:04;36.47;;;23.15;;
45402;SDS011;47427;51.976;5.326;2023-02-13T22:10:54;36.75;;;23.75;;
45402;SDS011;47427;51.976;5.326;2023-02-13T22:14:18;33.00;;;22.42;;
45402;SDS011;47427;51.976;5.326;2023-02-13T22:17:41;33.47;;;22.30;;
45402;SDS011;47427;51.976;5.326;2023-02-13T22:21:07;35.73;;;23.57;;
45402;SDS011;47427;51.976;5.326;2023-02-13T22:24:32;34.17;;;23.67;;
45402;SDS011;47427;51.976;5.326;2023-02-13T22:27:58;38.17;;;24.33;;
45402;SDS011;47427;51.976;5.326;2023-02-13T22:31:21;32.07;;;22.80;;
45402;SDS011;47427;51.976;5.326;2023-02-13T22:35:04;35.55;;;23.50;;
45402;SDS011;47427;51.976;5.326;2023-02-13T22:38:36;45.13;;;22.75;;
45402;SDS011;47427;51.976;5.326;2023-02-13T22:42:00;32.30;;;22.00;;
45402;SDS011;47427;51.976;5.326;2023-02-13T22:45:22;32.13;;;23.27;;
45402;SDS011;47427;51.976;5.326;2023-02-13T22:48:45;35.55;;;23.20;;
45402;SDS011;47427;51.976;5.326;2023-02-13T22:52:09;40.15;;;24.15;;
45402;SDS011;47427;51.976;5.326;2023-02-13T22:55:30;31.85;;;22.40;;
45402;SDS011;47427;51.976;5.326;2023-02-13T22:58:53;37.05;;;26.30;;
45402;SDS011;47427;51.976;5.326;2023-02-13T23:02:16;47.78;;;29.55;;
45402;SDS011;47427;51.976;5.326;2023-02-13T23:05:40;40.63;;;26.55;;
45402;SDS011;47427;51.976;5.326;2023-02-13T23:09:03;45.58;;;28.13;;
45402;SDS011;47427;51.976;5.326;2023-02-13T23:12:30;47.65;;;28.48;;
45402;SDS011;47427;51.976;5.326;2023-02-13T23:16:10;43.17;;;28.67;;
45402;SDS011;47427;51.976;5.326;2023-02-13T23:19:34;46.58;;;31.50;;
45402;SDS011;47427;51.976;5.326;2023-02-13T23:23:00;43.72;;;28.20;;
45402;SDS011;47427;51.976;5.326;2023-02-13T23:26:24;42.40;;;28.48;;
45402;SDS011;47427;51.976;5.326;2023-02-13T23:29:47;43.05;;;29.83;;
45402;SDS011;47427;51.976;5.326;2023-02-13T23:33:08;42.80;;;28.02;;
45402;SDS011;47427;51.976;5.326;2023-02-13T23:36:31;41.22;;;27.52;;
45402;SDS011;47427;51.976;5.326;2023-02-13T23:39:56;46.60;;;29.75;;
45402;SDS011;47427;51.976;5.326;2023-02-13T23:43:20;43.67;;;30.23;;
45402;SDS011;47427;51.976;5.326;2023-02-13T23:46:45;43.80;;;28.02;;